createdAt,value
2019-03-08T00:02:27.375Z,6.03
2019-03-08T00:04:57.756Z,3.80
2019-03-08T00:07:31.330Z,5.86
2019-03-08T00:10:05.639Z,5.03
2019-03-08T00:12:35.722Z,8.67
2019-03-08T00:15:08.218Z,5.03
2019-03-08T00:17:40.208Z,6.87
2019-03-08T00:20:16.868Z,7.20
2019-03-08T00:22:47.558Z,7.30
2019-03-08T00:25:20.332Z,7.87
2019-03-08T00:27:52.045Z,4.63
2019-03-08T00:30:29.321Z,4.23
2019-03-08T00:32:56.598Z,4.67
2019-03-08T00:35:28.972Z,3.97
2019-03-08T00:38:01.271Z,4.30
2019-03-08T00:40:39.732Z,8.97
2019-03-08T00:43:10.180Z,3.17
2019-03-08T00:45:42.802Z,6.07
2019-03-08T00:48:13.440Z,6.83
2019-03-08T00:50:45.437Z,3.33
2019-03-08T00:53:16.036Z,5.23
2019-03-08T00:55:47.648Z,7.40
2019-03-08T00:58:21.150Z,8.17
2019-03-08T01:00:54.669Z,11.97
2019-03-08T01:03:28.038Z,5.35
2019-03-08T01:06:01.712Z,6.37
2019-03-08T01:08:38.594Z,6.22
2019-03-08T01:11:27.105Z,6.87
2019-03-08T01:13:59.256Z,7.27
2019-03-08T01:16:30.939Z,5.80
2019-03-08T01:19:03.250Z,7.97
2019-03-08T01:21:33.940Z,5.18
2019-03-08T01:24:04.292Z,5.67
2019-03-08T01:26:37.754Z,6.22
2019-03-08T01:29:08.170Z,5.47
2019-03-08T01:31:44.818Z,5.65
2019-03-08T01:34:15.185Z,9.07
2019-03-08T01:36:48.336Z,6.87
2019-03-08T01:39:18.878Z,9.67
2019-03-08T01:41:57.243Z,6.08
2019-03-08T01:44:27.901Z,7.20
2019-03-08T01:47:01.529Z,6.90
2019-03-08T01:49:32.046Z,8.83
2019-03-08T01:52:09.291Z,5.35
2019-03-08T01:54:39.864Z,8.20
2019-03-08T01:57:11.666Z,4.87
2019-03-08T01:59:42.170Z,10.70
2019-03-08T02:02:21.365Z,12.47
2019-03-08T02:04:48.778Z,5.37
2019-03-08T02:07:26.618Z,8.30
2019-03-08T02:09:56.938Z,10.97
2019-03-08T02:12:32.057Z,6.53
2019-03-08T02:15:01.154Z,7.20
2019-03-08T02:17:34.724Z,12.43
2019-03-08T02:20:05.772Z,5.87
2019-03-08T02:22:56.746Z,8.28
2019-03-08T02:25:27.103Z,6.70
2019-03-08T02:28:04.836Z,8.93
2019-03-08T02:30:32.445Z,7.30
2019-03-08T02:33:07.039Z,7.27
2019-03-08T02:35:37.378Z,8.47
2019-03-08T02:38:09.557Z,7.30
2019-03-08T02:40:40.418Z,6.60
2019-03-08T02:43:17.958Z,7.90
2019-03-08T02:45:45.647Z,10.82
2019-03-08T02:48:17.310Z,8.93
2019-03-08T02:50:48.867Z,7.00
2019-03-08T02:53:19.423Z,8.57
2019-03-08T02:55:49.891Z,7.20
2019-03-08T02:58:20.453Z,9.17
2019-03-08T03:00:52.461Z,10.80
2019-03-08T03:03:26.780Z,8.87
2019-03-08T03:05:57.998Z,15.13
2019-03-08T03:08:38.766Z,17.27
2019-03-08T03:11:09.992Z,24.44
2019-03-08T03:13:43.218Z,26.23
2019-03-08T03:16:15.754Z,28.43
2019-03-08T03:18:47.833Z,33.93
2019-03-08T03:21:18.248Z,28.73
2019-03-08T03:23:50.246Z,30.80
2019-03-08T03:26:21.018Z,32.33
2019-03-08T03:28:52.646Z,40.07
2019-03-08T03:31:23.034Z,31.77
2019-03-08T03:33:57.278Z,26.53
2019-03-08T03:36:30.980Z,44.18
2019-03-08T03:39:02.425Z,28.60
2019-03-08T03:41:39.519Z,30.10
2019-03-08T03:44:14.112Z,14.80
2019-03-08T03:46:46.442Z,28.27
2019-03-08T03:49:29.664Z,21.17
2019-03-08T03:52:00.036Z,26.93
2019-03-08T03:55:08.800Z,22.33
2019-03-08T03:57:08.747Z,18.25
2019-03-08T03:59:42.301Z,26.13
2019-03-08T04:02:14.581Z,33.45
2019-03-08T04:04:46.798Z,26.73
2019-03-08T04:07:19.036Z,35.30
2019-03-08T04:09:51.521Z,30.00
2019-03-08T04:12:21.910Z,32.90
2019-03-08T04:14:53.994Z,28.60
2019-03-08T04:17:26.319Z,33.43
2019-03-08T04:20:00.551Z,49.58
2019-03-08T04:22:31.064Z,43.07
2019-03-08T04:25:06.620Z,52.25
2019-03-08T04:27:37.121Z,54.87
2019-03-08T04:30:12.738Z,34.70
2019-03-08T04:32:43.266Z,28.77
2019-03-08T04:35:15.261Z,22.33
2019-03-08T04:37:47.331Z,14.53
2019-03-08T04:40:21.898Z,16.37
2019-03-08T04:42:53.616Z,15.13
2019-03-08T04:45:25.489Z,17.58
2019-03-08T04:47:55.962Z,23.30
2019-03-08T04:50:33.491Z,20.43
2019-03-08T04:53:03.866Z,19.23
2019-03-08T04:55:35.019Z,16.83
2019-03-08T04:58:07.732Z,10.25
2019-03-08T05:01:10.114Z,10.20
2019-03-08T05:03:35.666Z,11.85
2019-03-08T05:06:14.780Z,9.80
2019-03-08T05:08:48.632Z,9.36
2019-03-08T05:11:20.389Z,9.77
2019-03-08T05:13:52.663Z,9.70
2019-03-08T05:16:27.921Z,16.13
2019-03-08T05:18:58.277Z,14.38
2019-03-08T05:21:33.631Z,14.53
2019-03-08T05:24:06.033Z,14.30
2019-03-08T05:26:41.005Z,12.03
2019-03-08T05:29:13.298Z,13.93
2019-03-08T05:31:47.847Z,13.77
2019-03-08T05:34:18.604Z,9.23
2019-03-08T05:36:49.085Z,8.97
2019-03-08T05:39:19.502Z,7.97
2019-03-08T05:41:55.866Z,11.60
2019-03-08T05:44:26.430Z,10.53
2019-03-08T05:47:03.130Z,9.23
2019-03-08T05:49:33.796Z,17.45
2019-03-08T05:52:29.815Z,13.87
2019-03-08T05:54:41.219Z,10.43
2019-03-08T05:57:13.555Z,11.43
2019-03-08T05:59:45.480Z,17.87
2019-03-08T06:02:22.532Z,13.20
2019-03-08T06:04:52.889Z,15.43
2019-03-08T06:07:47.099Z,17.30
2019-03-08T06:10:35.201Z,20.70
2019-03-08T06:13:06.650Z,11.00
2019-03-08T06:16:32.562Z,15.47
2019-03-08T06:18:17.036Z,16.57
2019-03-08T06:24:27.903Z,16.57
2019-03-08T06:27:05.806Z,20.18
2019-03-08T06:29:53.873Z,10.97
2019-03-08T06:32:11.528Z,11.50
2019-03-08T06:34:44.939Z,15.17
2019-03-08T06:37:17.292Z,11.40
2019-03-08T06:39:54.516Z,10.30
2019-03-08T06:42:23.343Z,11.17
2019-03-08T06:45:14.112Z,13.23
2019-03-08T06:51:01.411Z,12.83
2019-03-08T06:53:42.207Z,14.47
2019-03-08T06:56:28.106Z,17.20
2019-03-08T06:59:04.292Z,20.13
2019-03-08T07:02:22.593Z,26.00
2019-03-08T07:04:24.562Z,31.35
2019-03-08T07:06:57.729Z,25.43
2019-03-08T07:09:29.738Z,24.87
2019-03-08T07:12:25.248Z,20.40
2019-03-08T07:15:13.490Z,21.10
2019-03-08T07:17:45.370Z,18.95
2019-03-08T07:23:41.477Z,18.80
2019-03-08T07:26:30.494Z,14.45
2019-03-08T07:29:41.293Z,20.57
2019-03-08T07:32:33.593Z,16.45
2019-03-08T07:35:40.059Z,17.52
2019-03-08T07:38:29.840Z,15.32
2019-03-08T07:41:14.399Z,16.32
2019-03-08T07:44:03.780Z,13.80
2019-03-08T07:46:53.081Z,14.93
2019-03-08T07:50:00.703Z,18.40
2019-03-08T07:52:47.987Z,10.87
2019-03-08T07:55:39.557Z,13.40
2019-03-08T07:58:27.794Z,11.27
2019-03-08T08:01:10.495Z,10.93
2019-03-08T08:03:59.760Z,12.63
2019-03-08T08:06:54.982Z,7.70
2019-03-08T08:10:01.557Z,8.83
2019-03-08T08:13:07.476Z,14.00
2019-03-08T08:16:15.488Z,12.67
2019-03-08T08:18:59.519Z,12.77
2019-03-08T08:21:47.816Z,21.57
2019-03-08T08:24:29.114Z,11.63
2019-03-08T08:27:13.191Z,11.13
2019-03-08T08:30:07.897Z,8.90
2019-03-08T08:32:51.446Z,12.55
2019-03-08T08:35:43.326Z,11.00
2019-03-08T08:38:44.707Z,9.30
2019-03-08T08:41:28.109Z,8.95
2019-03-08T08:44:24.827Z,10.43
2019-03-08T08:47:11.767Z,10.75
2019-03-08T08:50:01.490Z,12.77
2019-03-08T08:53:00.342Z,12.00
2019-03-08T08:55:43.643Z,17.97
2019-03-08T08:58:24.664Z,10.33
2019-03-08T09:01:33.130Z,11.93
2019-03-08T09:04:34.153Z,9.63
2019-03-08T09:07:25.312Z,11.03
2019-03-08T09:10:13.022Z,9.57
2019-03-08T09:12:57.839Z,11.07
2019-03-08T09:15:56.118Z,12.97
2019-03-08T09:19:02.088Z,11.13
2019-03-08T09:21:43.916Z,12.13
2019-03-08T09:24:25.502Z,14.63
2019-03-08T09:27:08.975Z,15.00
2019-03-08T09:30:01.825Z,11.87
2019-03-08T09:32:58.708Z,10.90
2019-03-08T09:35:38.484Z,11.07
2019-03-08T09:38:29.502Z,7.63
2019-03-08T09:41:18.835Z,9.65
2019-03-08T09:44:08.671Z,10.93
2019-03-08T09:47:19.186Z,6.80
2019-03-08T09:50:10.524Z,10.18
2019-03-08T09:53:01.167Z,13.45
2019-03-08T09:55:52.839Z,9.88
2019-03-08T09:58:51.507Z,10.10
2019-03-08T10:01:45.415Z,10.60
2019-03-08T10:04:34.826Z,10.87
2019-03-08T10:07:19.962Z,8.80
2019-03-08T10:10:20.006Z,10.00
2019-03-08T10:13:09.837Z,8.93
2019-03-08T10:15:52.427Z,10.72
2019-03-08T10:18:45.106Z,10.30
2019-03-08T10:21:25.643Z,9.17
2019-03-08T10:24:21.168Z,11.57
2019-03-08T10:27:15.296Z,10.40
2019-03-08T10:30:05.391Z,11.88
2019-03-08T10:32:53.078Z,8.53
2019-03-08T10:35:53.089Z,8.30
2019-03-08T10:39:00.427Z,9.90
2019-03-08T10:42:03.002Z,6.10
2019-03-08T10:44:49.921Z,8.23
2019-03-08T10:47:39.666Z,10.47
2019-03-08T10:50:46.051Z,6.50
2019-03-08T10:53:22.087Z,7.20
2019-03-08T10:56:14.736Z,8.90
2019-03-08T10:58:56.327Z,7.33
2019-03-08T11:01:47.213Z,9.07
2019-03-08T11:04:28.227Z,7.83
2019-03-08T11:07:11.976Z,8.27
2019-03-08T11:09:59.909Z,5.40
2019-03-08T11:12:38.940Z,10.25
2019-03-08T11:15:38.496Z,8.55
2019-03-08T11:18:28.125Z,12.68
2019-03-08T11:21:25.361Z,11.40
2019-03-08T11:24:26.574Z,9.30
2019-03-08T11:27:17.373Z,10.33
2019-03-08T11:30:04.067Z,5.73
2019-03-08T11:32:52.380Z,8.50
2019-03-08T11:35:42.184Z,11.97
2019-03-08T11:38:33.241Z,8.73
2019-03-08T11:41:12.445Z,8.83
2019-03-08T11:44:00.316Z,13.10
2019-03-08T11:46:45.659Z,8.70
2019-03-08T11:49:46.438Z,8.90
2019-03-08T11:52:34.568Z,8.10
2019-03-08T11:55:35.102Z,12.00
2019-03-08T11:58:29.625Z,10.75
2019-03-08T12:01:21.753Z,11.35
2019-03-08T12:04:05.035Z,10.58
2019-03-08T12:07:12.835Z,12.33
2019-03-08T12:09:53.643Z,9.57
2019-03-08T12:12:52.173Z,10.03
2019-03-08T12:15:46.619Z,8.53
2019-03-08T12:18:36.881Z,8.90
2019-03-08T12:21:27.156Z,7.90
2019-03-08T12:24:11.000Z,10.50
2019-03-08T12:27:17.838Z,9.07
2019-03-08T12:30:06.756Z,11.47
2019-03-08T12:33:12.532Z,5.73
2019-03-08T12:35:57.331Z,12.77
2019-03-08T12:38:54.644Z,8.20
2019-03-08T12:42:04.646Z,7.03
2019-03-08T12:44:43.381Z,7.57
2019-03-08T12:47:33.537Z,9.60
2019-03-08T12:50:17.802Z,8.00
2019-03-08T12:53:07.355Z,5.95
2019-03-08T12:55:52.084Z,6.35
2019-03-08T12:58:31.900Z,6.30
2019-03-08T13:01:30.504Z,8.27
2019-03-08T13:04:26.173Z,7.42
2019-03-08T13:07:19.414Z,6.57
2019-03-08T13:09:51.715Z,5.38
2019-03-08T13:12:24.548Z,9.40
2019-03-08T13:14:57.452Z,5.67
2019-03-08T13:17:35.473Z,5.07
2019-03-08T13:20:10.903Z,5.73
2019-03-08T13:22:45.470Z,7.07
2019-03-08T13:25:17.450Z,8.03
2019-03-08T13:27:53.134Z,6.40
2019-03-08T13:30:24.071Z,5.87
2019-03-08T13:32:54.444Z,7.57
2019-03-08T13:35:26.661Z,5.72
2019-03-08T13:37:57.424Z,5.23
2019-03-08T13:40:29.427Z,6.07
2019-03-08T13:43:17.930Z,5.80
2019-03-08T13:45:33.870Z,5.25
2019-03-08T13:48:08.458Z,5.83
2019-03-08T13:50:38.875Z,7.03
2019-03-08T13:53:10.998Z,6.63
2019-03-08T13:55:41.407Z,6.60
2019-03-08T13:58:14.490Z,5.43
2019-03-08T14:00:45.135Z,5.17
2019-03-08T14:03:21.053Z,4.60
2019-03-08T14:05:51.743Z,7.17
2019-03-08T14:08:29.029Z,5.07
2019-03-08T14:10:59.315Z,2.97
2019-03-08T14:13:29.845Z,5.80
2019-03-08T14:16:01.498Z,7.53
2019-03-08T14:18:31.934Z,3.47
2019-03-08T14:21:02.334Z,3.67
2019-03-08T14:23:42.768Z,6.73
2019-03-08T14:26:13.446Z,3.93
2019-03-08T14:28:45.575Z,7.17
2019-03-08T14:31:34.624Z,5.92
2019-03-08T14:34:10.697Z,5.17
2019-03-08T14:36:43.181Z,6.27
2019-03-08T14:39:16.242Z,6.15
2019-03-08T14:41:59.113Z,5.27
2019-03-08T14:44:56.940Z,5.37
2019-03-08T14:47:33.455Z,6.83
2019-03-08T14:50:03.184Z,7.60
2019-03-08T14:52:37.766Z,5.90
2019-03-08T14:55:10.516Z,5.17
2019-03-08T14:57:42.484Z,4.47
2019-03-08T15:00:18.143Z,7.70
2019-03-08T15:02:54.439Z,8.50
2019-03-08T15:05:25.881Z,4.93
2019-03-08T15:08:01.815Z,5.77
2019-03-08T15:10:39.664Z,5.72
2019-03-08T15:13:09.615Z,5.80
2019-03-08T15:15:41.502Z,3.77
2019-03-08T15:18:16.222Z,4.40
2019-03-08T15:20:47.316Z,5.57
2019-03-08T15:23:22.625Z,6.50
2019-03-08T15:25:57.843Z,5.12
2019-03-08T15:28:39.348Z,6.83
2019-03-08T15:31:12.617Z,7.83
2019-03-08T15:33:47.812Z,4.37
2019-03-08T15:36:17.374Z,4.80
2019-03-08T15:38:47.749Z,4.87
2019-03-08T15:41:21.474Z,4.13
2019-03-08T15:43:51.162Z,6.23
2019-03-08T15:46:23.458Z,5.75
2019-03-08T15:48:55.402Z,6.20
2019-03-08T15:51:27.660Z,4.20
2019-03-08T15:54:04.514Z,7.30
2019-03-08T15:56:35.269Z,7.83
2019-03-08T15:59:10.114Z,6.77
2019-03-08T16:01:42.488Z,4.37
2019-03-08T16:04:19.089Z,4.73
2019-03-08T16:06:49.933Z,5.13
2019-03-08T16:09:30.325Z,6.20
2019-03-08T16:11:59.801Z,5.77
2019-03-08T16:14:30.196Z,4.63
2019-03-08T16:17:02.677Z,4.43
2019-03-08T16:19:35.526Z,7.40
2019-03-08T16:22:08.773Z,7.40
2019-03-08T16:24:48.136Z,7.03
2019-03-08T16:27:18.539Z,8.18
2019-03-08T16:29:55.353Z,5.98
2019-03-08T16:32:41.831Z,7.73
2019-03-08T16:35:13.552Z,4.60
2019-03-08T16:38:06.893Z,2.77
2019-03-08T16:41:00.044Z,7.17
2019-03-08T16:43:53.497Z,4.13
2019-03-08T16:46:33.271Z,5.15
2019-03-08T16:49:32.295Z,4.43
2019-03-08T16:52:36.230Z,3.77
2019-03-08T16:55:32.367Z,4.20
2019-03-08T16:58:26.908Z,9.50
2019-03-08T17:01:20.581Z,6.07
2019-03-08T17:04:12.696Z,5.33
2019-03-08T17:06:57.916Z,3.80
2019-03-08T17:09:57.902Z,4.45
2019-03-08T17:12:47.258Z,3.50
2019-03-08T17:15:42.267Z,4.03
2019-03-08T17:18:34.652Z,4.60
2019-03-08T17:21:35.518Z,5.70
2019-03-08T17:24:31.967Z,3.40
2019-03-08T17:27:21.792Z,5.10
2019-03-08T17:30:19.531Z,6.37
2019-03-08T17:33:11.163Z,6.63
2019-03-08T17:36:06.505Z,5.03
2019-03-08T17:38:56.753Z,6.97
2019-03-08T17:42:08.601Z,5.97
2019-03-08T17:44:39.353Z,5.80
2019-03-08T17:47:41.770Z,5.78
2019-03-08T17:50:31.329Z,5.77
2019-03-08T17:53:29.868Z,4.50
2019-03-08T17:56:16.044Z,3.70
2019-03-08T17:59:17.438Z,3.93
2019-03-08T18:02:09.877Z,3.10
2019-03-08T18:04:52.633Z,5.58
2019-03-08T18:07:44.605Z,8.18
2019-03-08T18:10:33.867Z,6.33
2019-03-08T18:13:29.375Z,4.73
2019-03-08T18:16:23.491Z,2.70
2019-03-08T18:19:14.005Z,3.50
2019-03-08T18:21:55.998Z,2.57
2019-03-08T18:25:02.827Z,1.82
2019-03-08T18:27:49.768Z,5.94
2019-03-08T18:30:37.947Z,5.37
2019-03-08T18:33:25.239Z,4.05
2019-03-08T18:36:24.254Z,4.65
2019-03-08T18:39:11.570Z,5.15
2019-03-08T18:42:00.332Z,5.30
2019-03-08T18:44:41.790Z,5.40
2019-03-08T18:47:25.592Z,5.03
2019-03-08T18:50:25.598Z,2.90
2019-03-08T18:53:07.980Z,4.53
2019-03-08T18:56:00.105Z,4.58
2019-03-08T18:58:41.042Z,4.07
2019-03-08T19:01:45.834Z,4.55
2019-03-08T19:04:51.929Z,5.10
2019-03-08T19:07:44.477Z,6.37
2019-03-08T19:10:29.629Z,7.67
2019-03-08T19:13:29.170Z,5.10
2019-03-08T19:16:12.123Z,6.47
2019-03-08T19:19:03.970Z,5.57
2019-03-08T19:21:42.850Z,6.28
2019-03-08T19:24:34.707Z,7.57
2019-03-08T19:27:15.953Z,6.87
2019-03-08T19:30:05.613Z,8.47
2019-03-08T19:32:58.166Z,6.37
2019-03-08T19:35:49.902Z,10.33
2019-03-08T19:38:42.468Z,5.90
2019-03-08T19:41:30.467Z,6.73
2019-03-08T19:44:50.810Z,10.85
2019-03-08T19:47:26.170Z,6.17
2019-03-08T19:50:07.096Z,7.35
2019-03-08T19:52:59.105Z,7.10
2019-03-08T19:55:52.056Z,11.80
2019-03-08T19:58:50.157Z,8.33
2019-03-08T20:01:44.711Z,6.57
2019-03-08T20:04:39.941Z,9.00
2019-03-08T20:07:42.524Z,9.73
2019-03-08T20:10:32.222Z,6.07
2019-03-08T20:13:31.146Z,10.13
2019-03-08T20:16:20.995Z,8.70
2019-03-08T20:19:15.569Z,9.90
2019-03-08T20:22:03.858Z,7.47
2019-03-08T20:24:59.166Z,6.40
2019-03-08T20:27:49.738Z,9.07
2019-03-08T20:30:38.435Z,8.23
2019-03-08T20:33:16.827Z,7.40
2019-03-08T20:36:05.220Z,8.93
2019-03-08T20:38:54.774Z,8.70
2019-03-08T20:41:47.741Z,8.83
2019-03-08T20:44:27.382Z,10.67
2019-03-08T20:47:05.126Z,9.53
2019-03-08T20:49:42.667Z,11.20
2019-03-08T20:52:10.016Z,7.37
2019-03-08T20:54:53.733Z,8.20
2019-03-08T20:57:26.531Z,8.47
2019-03-08T20:59:57.767Z,9.95
2019-03-08T21:02:30.469Z,7.43
2019-03-08T21:05:02.959Z,9.37
2019-03-08T21:07:35.496Z,9.30
2019-03-08T21:10:06.779Z,10.53
2019-03-08T21:12:41.620Z,7.43
2019-03-08T21:15:25.480Z,8.77
2019-03-08T21:17:55.915Z,6.07
2019-03-08T21:20:28.464Z,6.80
2019-03-08T21:23:11.156Z,7.40
2019-03-08T21:25:38.176Z,8.23
2019-03-08T21:28:13.288Z,8.70
2019-03-08T21:30:43.736Z,10.63
2019-03-08T21:33:14.367Z,6.00
2019-03-08T21:35:47.060Z,7.70
2019-03-08T21:38:32.686Z,5.90
2019-03-08T21:41:01.765Z,9.20
2019-03-08T21:43:39.323Z,6.30
2019-03-08T21:46:09.722Z,8.07
2019-03-08T21:48:47.810Z,6.93
2019-03-08T21:51:18.425Z,7.67
2019-03-08T21:53:48.882Z,5.87
2019-03-08T21:56:19.211Z,5.27
2019-03-08T21:58:53.545Z,6.65
2019-03-08T22:01:24.288Z,7.60
2019-03-08T22:04:14.912Z,7.03
2019-03-08T22:06:44.078Z,6.10
2019-03-08T22:09:48.717Z,7.13
2019-03-08T22:12:19.098Z,6.53
2019-03-08T22:15:01.461Z,4.30
2019-03-08T22:17:33.101Z,7.60
2019-03-08T22:20:11.527Z,4.30
2019-03-08T22:22:46.278Z,7.53
2019-03-08T22:25:17.639Z,6.40
2019-03-08T22:27:52.478Z,7.63
2019-03-08T22:30:26.444Z,9.30
2019-03-08T22:32:58.748Z,12.37
2019-03-08T22:35:31.060Z,10.77
2019-03-08T22:38:04.651Z,11.20
2019-03-08T22:40:38.446Z,6.47
2019-03-08T22:43:12.785Z,9.10
2019-03-08T22:45:50.768Z,8.73
2019-03-08T22:48:29.490Z,7.80
2019-03-08T22:51:00.391Z,8.37
2019-03-08T22:53:38.681Z,10.96
2019-03-08T22:56:09.085Z,7.93
2019-03-08T22:58:44.935Z,10.03
2019-03-08T23:01:19.293Z,10.07
2019-03-08T23:03:54.611Z,9.37
2019-03-08T23:06:26.319Z,8.90
2019-03-08T23:09:06.045Z,8.40
2019-03-08T23:11:37.465Z,6.37
2019-03-08T23:14:10.154Z,7.78
2019-03-08T23:16:40.533Z,5.60
2019-03-08T23:19:13.603Z,4.37
2019-03-08T23:21:44.288Z,2.67
2019-03-08T23:25:09.976Z,5.20
2019-03-08T23:27:01.156Z,5.30
2019-03-08T23:29:35.749Z,5.00
2019-03-08T23:32:12.773Z,5.63
2019-03-08T23:34:46.067Z,5.60
2019-03-08T23:37:18.292Z,6.62
2019-03-08T23:39:50.027Z,5.47
2019-03-08T23:42:20.812Z,4.80
2019-03-08T23:44:54.983Z,7.63
2019-03-08T23:47:25.857Z,5.78
2019-03-08T23:50:03.492Z,6.33
2019-03-08T23:52:35.451Z,5.60
2019-03-08T23:55:06.349Z,5.33
2019-03-08T23:57:36.997Z,7.00
